Time;durP1;ratioP1;P1;durP2;ratioP2;P2;SDS_P1;SDS_P2;PMS_P1;PMS_P2;Temp;Humidity;BMP_temperature;BMP_pressure;BME280_temperature;BME280_humidity;BME280_pressure;Samples;Min_cycle;Max_cycle;Signal;HPM_P1;HPM_P2
2024/01/19 00:01:28;;;;;;;10.90;6.85;;;;;;;1.76;100.00;100459.41;10253455;28;20134;-72
2024/01/19 00:06:29;;;;;;;11.85;6.75;;;;;;;1.62;100.00;100413.28;10253243;29;20627;-72
2024/01/19 00:11:29;;;;;;;10.68;6.35;;;;;;;1.63;100.00;100404.47;10253204;29;20050;-72
2024/01/19 00:16:30;;;;;;;11.95;6.88;;;;;;;1.41;100.00;100334.47;10252987;29;20053;-72
2024/01/19 00:21:31;;;;;;;10.70;7.13;;;;;;;1.73;100.00;100388.91;10252725;29;20408;-72
2024/01/19 00:26:31;;;;;;;10.25;6.40;;;;;;;1.39;100.00;100319.81;10253074;29;20047;-72
2024/01/19 00:31:34;;;;;;;11.00;7.25;;;;;;;1.79;100.00;100391.09;10252199;29;20065;-72
2024/01/19 00:36:34;;;;;;;13.98;7.25;;;;;;;1.85;100.00;100397.69;10251620;29;20047;-72
2024/01/19 00:41:35;;;;;;;9.55;6.25;;;;;;;2.01;100.00;100396.47;10251726;28;20061;-72
2024/01/19 00:46:36;;;;;;;10.63;6.90;;;;;;;2.12;100.00;100398.28;10252444;29;20094;-72
2024/01/19 00:51:36;;;;;;;17.08;6.45;;;;;;;2.22;100.00;100388.81;10252317;29;20043;-72
2024/01/19 00:56:37;;;;;;;12.48;7.10;;;;;;;1.97;100.00;100326.06;10253058;29;20039;-72
2024/01/19 01:01:38;;;;;;;10.80;6.50;;;;;;;2.36;100.00;100392.19;10251411;29;20039;-72
2024/01/19 01:06:39;;;;;;;11.07;7.13;;;;;;;2.35;100.00;100393.97;10251888;29;20109;-73
2024/01/19 01:11:40;;;;;;;10.52;6.88;;;;;;;2.34;100.00;100388.88;10251311;29;20466;-72
2024/01/19 01:16:40;;;;;;;10.23;6.70;;;;;;;2.08;100.00;100333.13;10250405;29;20066;-72
2024/01/19 01:21:41;;;;;;;12.35;7.00;;;;;;;2.40;100.00;100397.09;10251150;28;20503;-72
2024/01/19 01:26:42;;;;;;;11.93;7.25;;;;;;;2.11;100.00;100346.84;10251377;28;20499;-72
2024/01/19 01:31:43;;;;;;;13.00;7.13;;;;;;;2.37;100.00;100383.41;10250847;29;20043;-73
2024/01/19 01:36:44;;;;;;;11.25;7.15;;;;;;;2.17;100.00;100338.53;10251373;29;20392;-72
2024/01/19 01:41:44;;;;;;;14.50;6.75;;;;;;;2.42;100.00;100368.13;10245002;28;20423;-72
2024/01/19 01:46:45;;;;;;;14.38;7.72;;;;;;;2.20;100.00;100321.72;10250390;28;20058;-72
2024/01/19 01:51:46;;;;;;;10.23;6.80;;;;;;;2.41;100.00;100366.47;10251087;29;20102;-72
2024/01/19 01:56:48;;;;;;;11.27;7.43;;;;;;;2.38;100.00;100395.53;10251084;29;20047;-72
2024/01/19 02:01:49;;;;;;;11.68;7.03;;;;;;;2.04;100.00;100345.63;10251290;29;20043;-72
2024/01/19 02:06:50;;;;;;;11.30;7.05;;;;;;;2.32;100.00;100356.69;10250770;29;20051;-72
2024/01/19 02:11:52;;;;;;;17.98;6.72;;;;;;;2.41;100.00;100335.84;10249111;29;20047;-72
2024/01/19 02:16:52;;;;;;;13.35;7.50;;;;;;;2.12;100.00;100271.66;10250559;28;20046;-73
2024/01/19 02:21:53;;;;;;;11.40;7.50;;;;;;;2.36;100.00;100296.03;10256029;28;20407;-72
2024/01/19 02:26:55;;;;;;;11.73;7.72;;;;;;;2.23;100.00;100300.53;10257584;28;20070;-74
2024/01/19 02:31:56;;;;;;;10.60;7.32;;;;;;;2.33;100.00;100295.44;10256254;28;20039;-75
2024/01/19 02:36:57;;;;;;;12.02;8.30;;;;;;;1.96;100.00;100235.31;10256705;28;20047;-74
2024/01/19 02:41:57;;;;;;;12.82;7.72;;;;;;;2.32;100.00;100278.88;10255719;28;20455;-72
2024/01/19 02:46:58;;;;;;;14.35;8.52;;;;;;;2.03;100.00;100231.28;10250996;28;20047;-74
2024/01/19 02:51:59;;;;;;;13.73;7.53;;;;;;;2.20;100.00;100270.16;10249640;28;20051;-73
2024/01/19 02:57:00;;;;;;;15.50;8.05;;;;;;;2.21;100.00;100276.22;10253557;28;20086;-74
2024/01/19 03:02:02;;;;;;;12.15;7.72;;;;;;;2.24;100.00;100266.38;10244835;29;20599;-73
2024/01/19 03:07:04;;;;;;;12.25;7.20;;;;;;;2.19;100.00;100257.19;10256367;29;20082;-74
2024/01/19 03:12:05;;;;;;;11.82;7.13;;;;;;;2.17;100.00;100251.22;10256513;28;20051;-70
2024/01/19 03:17:05;;;;;;;10.43;6.93;;;;;;;2.18;100.00;100313.13;10255960;28;20085;-73
2024/01/19 03:22:06;;;;;;;12.55;7.43;;;;;;;2.12;100.00;100331.94;10254749;28;20130;-72
2024/01/19 03:27:07;;;;;;;14.23;7.07;;;;;;;2.07;100.00;100353.25;10255236;28;20058;-73
2024/01/19 03:32:08;;;;;;;12.90;7.43;;;;;;;1.94;100.00;100306.16;10254221;28;20043;-72
2024/01/19 03:37:08;;;;;;;18.05;8.63;;;;;;;1.91;100.00;100343.06;10254378;28;20043;-71
2024/01/19 03:42:09;;;;;;;12.82;8.57;;;;;;;1.88;100.00;100311.84;10254133;28;20091;-72
2024/01/19 03:47:10;;;;;;;12.38;7.82;;;;;;;1.92;100.00;100338.69;10254750;28;20169;-81
2024/01/19 03:52:11;;;;;;;17.58;8.88;;;;;;;1.80;100.00;100260.03;10254210;28;20146;-73
2024/01/19 03:57:12;;;;;;;24.75;11.63;;;;;;;1.91;100.00;100272.31;10253723;28;20043;-70
2024/01/19 04:02:12;;;;;;;18.85;9.02;;;;;;;1.91;100.00;100255.78;10253796;28;20467;-74
2024/01/19 04:07:13;;;;;;;21.65;11.80;;;;;;;1.92;100.00;100244.38;10253851;28;20137;-71
2024/01/19 04:12:16;;;;;;;19.33;12.18;;;;;;;2.01;100.00;100247.13;10253803;28;20109;-70
2024/01/19 04:17:17;;;;;;;29.48;15.80;;;;;;;1.81;100.00;100187.53;10253516;28;20070;-73
2024/01/19 04:22:17;;;;;;;30.95;18.50;;;;;;;2.03;100.00;100177.13;10245771;28;20129;-72
2024/01/19 04:27:18;;;;;;;27.58;16.15;;;;;;;2.11;100.00;100131.13;10251539;28;20509;-74
2024/01/19 04:32:20;;;;;;;28.42;18.30;;;;;;;2.31;100.00;100202.97;10233541;28;20094;-72
2024/01/19 04:37:21;;;;;;;31.75;17.77;;;;;;;2.44;100.00;100240.41;10246850;28;20503;-72
2024/01/19 04:42:21;;;;;;;31.83;18.65;;;;;;;2.51;100.00;100225.84;10252156;28;20118;-72
2024/01/19 04:47:22;;;;;;;29.77;17.15;;;;;;;2.44;100.00;100209.75;10251141;28;20161;-72
2024/01/19 04:52:23;;;;;;;29.17;16.83;;;;;;;2.54;100.00;100204.63;10252284;28;20043;-72
2024/01/19 04:57:24;;;;;;;32.10;19.58;;;;;;;2.45;100.00;100200.97;10252181;28;20065;-72
2024/01/19 05:02:25;;;;;;;33.40;18.10;;;;;;;2.81;100.00;100246.22;10251564;28;20043;-72
2024/01/19 05:07:27;;;;;;;32.40;19.42;;;;;;;2.59;100.00;100199.88;10251239;29;20427;-72
2024/01/19 05:12:27;;;;;;;36.08;19.17;;;;;;;2.91;100.00;100260.31;10251432;28;20049;-72
2024/01/19 05:17:28;;;;;;;35.60;20.38;;;;;;;2.58;100.00;100208.69;10252061;28;20043;-72
2024/01/19 05:22:29;;;;;;;30.60;19.10;;;;;;;2.90;100.00;100257.78;10251800;28;20400;-72
2024/01/19 05:27:30;;;;;;;34.17;19.20;;;;;;;2.97;100.00;100280.81;10251448;28;20047;-72
2024/01/19 05:32:31;;;;;;;32.03;21.02;;;;;;;2.79;100.00;100248.16;10251028;28;20070;-73
2024/01/19 05:37:31;;;;;;;37.28;21.88;;;;;;;2.79;100.00;100239.44;10251485;28;20063;-73
2024/01/19 05:42:32;;;;;;;35.67;22.00;;;;;;;2.87;100.00;100258.03;10250925;28;20137;-73
2024/01/19 05:47:33;;;;;;;37.42;21.13;;;;;;;2.86;100.00;100248.50;10250560;28;20046;-73
2024/01/19 05:52:34;;;;;;;37.85;22.10;;;;;;;3.01;100.00;100259.56;10251317;28;20098;-73
2024/01/19 05:57:35;;;;;;;30.38;18.85;;;;;;;2.99;100.00;100254.44;10259114;28;20045;-73
2024/01/19 06:02:35;;;;;;;36.00;21.20;;;;;;;2.64;100.00;100208.22;10258672;28;20137;-73
2024/01/19 06:07:36;;;;;;;33.85;19.05;;;;;;;2.92;100.00;100245.38;10258420;28;20057;-73
2024/01/19 06:12:37;;;;;;;35.05;20.85;;;;;;;2.95;100.00;100251.22;10257922;28;20046;-73
2024/01/19 06:17:38;;;;;;;33.38;19.55;;;;;;;3.05;100.00;100237.38;10257993;28;20039;-73
2024/01/19 06:22:38;;;;;;;43.63;21.38;;;;;;;3.10;100.00;100235.22;10257317;29;20050;-73
2024/01/19 06:27:39;;;;;;;34.97;21.17;;;;;;;3.10;100.00;100232.59;10257681;28;20073;-73
2024/01/19 06:32:40;;;;;;;31.20;19.50;;;;;;;2.91;100.00;100207.81;10257453;28;20054;-72
2024/01/19 06:37:41;;;;;;;34.50;20.75;;;;;;;3.13;100.00;100230.56;10257798;28;20046;-75
2024/01/19 06:42:45;;;;;;;36.47;21.35;;;;;;;2.89;100.00;100174.78;10256811;28;20059;-74
2024/01/19 06:47:46;;;;;;;37.22;21.25;;;;;;;2.97;100.00;100194.22;10256319;28;20047;-74
2024/01/19 06:52:46;;;;;;;29.23;17.23;;;;;;;3.05;100.00;100195.38;10256372;28;20058;-75
2024/01/19 06:57:47;;;;;;;37.33;21.15;;;;;;;2.88;100.00;100167.88;10256565;28;20035;-73
2024/01/19 07:02:48;;;;;;;41.10;21.25;;;;;;;2.95;100.00;100203.16;10256565;28;20043;-74
2024/01/19 07:07:48;;;;;;;31.30;19.50;;;;;;;3.05;100.00;100272.34;10256109;28;20586;-73
2024/01/19 07:12:49;;;;;;;35.30;19.38;;;;;;;2.94;100.00;100243.47;10256179;28;20044;-74
2024/01/19 07:17:50;;;;;;;29.85;18.98;;;;;;;2.68;100.00;100209.63;10254819;29;20051;-74
2024/01/19 07:22:55;;;;;;;32.60;19.52;;;;;;;2.83;100.00;100261.84;10255442;28;20041;-74
2024/01/19 07:27:55;;;;;;;38.30;20.65;;;;;;;2.78;100.00;100243.84;10255367;28;20079;-74
2024/01/19 07:32:56;;;;;;;34.25;20.95;;;;;;;2.63;100.00;100248.53;10254843;28;20063;-75
2024/01/19 07:37:57;;;;;;;35.60;21.92;;;;;;;2.51;100.00;100225.84;10255101;28;20145;-72
2024/01/19 07:42:57;;;;;;;33.47;20.25;;;;;;;2.44;100.00;100220.25;10254221;28;20507;-73
2024/01/19 07:47:58;;;;;;;34.28;20.90;;;;;;;2.28;100.00;100198.81;10254879;28;20047;-74
2024/01/19 07:52:59;;;;;;;36.42;21.45;;;;;;;2.23;100.00;100203.56;10254559;28;20039;-74
2024/01/19 07:58:01;;;;;;;34.33;21.13;;;;;;;2.00;100.00;100155.53;10254470;28;20043;-74
2024/01/19 08:03:02;;;;;;;32.45;20.40;;;;;;;2.25;100.00;100170.22;10253754;28;20039;-73
2024/01/19 08:08:03;;;;;;;36.95;22.02;;;;;;;2.32;100.00;100184.50;10253728;28;20039;-74
2024/01/19 08:13:04;;;;;;;35.58;21.13;;;;;;;2.37;100.00;100185.00;10253120;28;20051;-74
2024/01/19 08:18:04;;;;;;;35.97;20.67;;;;;;;2.40;100.00;100197.84;10253187;28;20050;-75
2024/01/19 08:23:05;;;;;;;34.80;20.30;;;;;;;2.12;100.00;100151.13;10253259;28;20051;-74
2024/01/19 08:28:06;;;;;;;31.15;19.95;;;;;;;2.37;100.00;100208.56;10253146;28;20043;-75
2024/01/19 08:33:07;;;;;;;29.30;18.42;;;;;;;2.44;100.00;100198.44;10252402;28;20050;-74
2024/01/19 08:38:08;;;;;;;33.00;19.50;;;;;;;2.42;100.00;100216.06;10252260;28;20046;-75
2024/01/19 08:43:09;;;;;;;29.85;18.63;;;;;;;2.34;100.00;100181.78;10252475;28;20062;-75
2024/01/19 08:48:10;;;;;;;30.85;19.33;;;;;;;2.38;100.00;100172.72;10252345;28;20533;-75
2024/01/19 08:53:10;;;;;;;36.53;20.70;;;;;;;2.35;100.00;100165.09;10251946;28;20054;-75
2024/01/19 08:58:11;;;;;;;33.15;19.88;;;;;;;2.39;100.00;100166.50;10252243;28;20039;-76
2024/01/19 09:03:12;;;;;;;35.63;21.13;;;;;;;2.48;100.00;100165.78;10251651;28;20464;-76
2024/01/19 09:08:13;;;;;;;31.95;19.30;;;;;;;2.49;100.00;100170.09;10252212;28;20047;-75
2024/01/19 09:13:13;;;;;;;36.75;20.65;;;;;;;2.52;100.00;100164.59;10252051;28;20102;-76
2024/01/19 09:18:14;;;;;;;35.42;19.65;;;;;;;2.54;100.00;100161.84;10251237;28;20090;-76
2024/01/19 09:23:15;;;;;;;30.00;18.48;;;;;;;2.62;100.00;100144.56;10251245;28;20393;-76
2024/01/19 09:28:17;;;;;;;29.90;18.02;;;;;;;2.72;100.00;100161.25;10252181;28;20043;-76
2024/01/19 09:33:17;;;;;;;29.23;17.67;;;;;;;2.70;100.00;100165.78;10259835;28;20073;-77
2024/01/19 09:38:18;;;;;;;27.52;17.85;;;;;;;2.76;100.00;100168.88;10259527;28;20071;-76
2024/01/19 09:43:19;;;;;;;30.17;17.27;;;;;;;2.76;100.00;100148.72;10258894;28;20063;-75
2024/01/19 09:48:24;;;;;;;34.40;18.00;;;;;;;2.86;100.00;100152.25;10259449;28;20570;-75
2024/01/19 09:53:32;;;;;;;29.83;16.85;;;;;;;2.96;100.00;100150.56;10258918;28;20416;-74
2024/01/19 09:58:33;;;;;;;29.52;18.33;;;;;;;3.07;100.00;100154.09;10259417;28;20042;-75
2024/01/19 10:03:36;;;;;;;27.77;17.95;;;;;;;3.17;100.00;100121.75;10258109;28;20039;-75
2024/01/19 10:08:38;;;;;;;29.13;17.42;;;;;;;3.37;100.00;100114.84;10257865;28;20534;-74
2024/01/19 10:13:39;;;;;;;27.67;17.90;;;;;;;3.31;100.00;100056.75;10257802;28;20047;-74
2024/01/19 10:18:41;;;;;;;31.85;17.75;;;;;;;3.74;100.00;100087.25;10257967;28;20051;-74
2024/01/19 10:23:43;;;;;;;27.67;16.08;;;;;;;3.54;100.00;100063.53;10258105;28;20087;-74
2024/01/19 10:28:43;;;;;;;26.77;17.63;;;;;;;3.34;100.00;100103.75;10257110;28;20043;-74
2024/01/19 10:33:51;;;;;;;30.85;17.23;;;;;;;3.43;100.00;100090.69;10257748;28;20050;-74
2024/01/19 10:38:52;;;;;;;26.73;16.35;;;;;;;3.34;100.00;100061.75;10256126;28;20065;-75
2024/01/19 10:44:00;;;;;;;25.15;16.30;;;;;;;3.55;100.00;100098.50;10258149;28;20067;-75
2024/01/19 10:49:06;;;;;;;26.40;17.35;;;;;;;3.54;100.00;100097.69;10256859;28;20102;-75
2024/01/19 10:54:10;;;;;;;29.35;17.60;;;;;;;3.59;100.00;100103.38;10256926;28;20074;-75
2024/01/19 10:59:12;;;;;;;26.85;16.80;;;;;;;3.53;100.00;100103.03;10256138;28;20047;-74
2024/01/19 11:04:13;;;;;;;30.13;17.40;;;;;;;3.80;100.00;100120.91;10256328;28;20486;-76
2024/01/19 11:09:14;;;;;;;26.90;17.55;;;;;;;3.91;100.00;100122.63;10256602;28;20039;-75
2024/01/19 11:14:20;;;;;;;31.92;17.88;;;;;;;3.41;100.00;100068.13;10256845;28;20047;-77
2024/01/19 11:19:25;;;;;;;24.63;17.17;;;;;;;3.86;100.00;100146.69;10256375;28;20128;-76
2024/01/19 11:24:32;;;;;;;26.00;17.00;;;;;;;3.72;100.00;100134.69;10255479;28;20058;-76
2024/01/19 11:29:38;;;;;;;33.90;16.42;;;;;;;3.74;100.00;100138.03;10255613;28;20045;-76
2024/01/19 11:34:47;;;;;;;23.85;15.82;;;;;;;3.79;100.00;100135.00;10254770;28;20058;-76
2024/01/19 11:39:47;;;;;;;24.67;15.60;;;;;;;3.52;100.00;100078.59;10255652;28;20062;-75
2024/01/19 11:44:49;;;;;;;25.67;16.42;;;;;;;3.91;100.00;100141.03;10254776;28;20069;-77
2024/01/19 11:49:50;;;;;;;26.70;16.65;;;;;;;3.51;100.00;100084.81;10254708;28;20075;-77
2024/01/19 11:54:50;;;;;;;27.00;17.88;;;;;;;3.74;100.00;100126.69;10253785;28;20511;-77
2024/01/19 11:59:53;;;;;;;26.70;16.60;;;;;;;3.65;100.00;100133.56;10251190;28;20107;-76
2024/01/19 12:04:55;;;;;;;27.00;16.70;;;;;;;3.68;100.00;100133.31;10250667;28;20042;-77
2024/01/19 12:10:12;;;;;;;24.52;16.20;;;;;;;3.67;100.00;100140.31;10250655;28;20039;-78
2024/01/19 12:15:17;;;;;;;26.35;16.02;;;;;;;3.56;100.00;100129.06;10245169;28;20539;-78
2024/01/19 12:20:18;;;;;;;25.42;16.30;;;;;;;3.69;100.00;100142.00;10242917;28;20078;-79
2024/01/19 12:25:21;;;;;;;25.83;16.38;;;;;;;3.41;100.00;100094.41;10252592;28;20062;-79
2024/01/19 12:30:21;;;;;;;31.75;16.15;;;;;;;3.51;100.00;100118.13;10250102;28;20122;-78
2024/01/19 12:35:22;;;;;;;29.13;16.35;;;;;;;3.62;100.00;100154.81;10247150;28;20047;-79
2024/01/19 12:40:25;;;;;;;26.55;17.85;;;;;;;3.43;100.00;100118.75;10247665;29;20384;-80
2024/01/19 12:45:26;;;;;;;26.88;16.30;;;;;;;3.59;100.00;100148.03;10241114;28;20059;-79
2024/01/19 12:50:28;;;;;;;24.98;16.05;;;;;;;3.49;100.00;100159.41;10231674;28;20043;-79
2024/01/19 12:55:33;;;;;;;24.25;16.63;;;;;;;3.44;100.00;100144.06;10248455;29;20031;-80
2024/01/19 13:00:34;;;;;;;26.10;16.35;;;;;;;3.24;100.00;100139.63;10253004;28;20510;-80
2024/01/19 13:05:35;;;;;;;24.67;16.05;;;;;;;3.31;100.00;100161.78;10251692;28;20043;-79
2024/01/19 13:10:36;;;;;;;25.58;16.83;;;;;;;3.00;100.00;100096.03;10252408;28;20134;-79
2024/01/19 13:15:37;;;;;;;27.67;17.25;;;;;;;3.24;100.00;100132.56;10251594;28;20127;-79
2024/01/19 13:20:39;;;;;;;30.25;18.10;;;;;;;3.33;100.00;100142.31;10250326;28;20047;-78
2024/01/19 13:25:39;;;;;;;23.55;16.52;;;;;;;3.23;100.00;100137.94;10233403;28;20107;-82
2024/01/19 13:30:42;;;;;;;28.42;17.52;;;;;;;3.28;100.00;100144.47;10243045;29;20077;-82
2024/01/19 13:35:44;;;;;;;28.30;16.92;;;;;;;3.26;100.00;100137.69;10229180;28;20435;-83
2024/01/19 13:40:44;;;;;;;29.30;17.70;;;;;;;3.19;100.00;100135.56;10242831;29;20054;-81
2024/01/19 13:45:45;;;;;;;31.73;19.38;;;;;;;3.21;100.00;100130.19;10232088;29;20062;-81
2024/01/19 13:50:46;;;;;;;29.52;17.92;;;;;;;3.22;100.00;100159.91;10235493;29;20046;-82
2024/01/19 13:55:47;;;;;;;29.73;18.20;;;;;;;3.22;100.00;100189.59;10240525;29;20046;-81
2024/01/19 14:00:48;;;;;;;28.00;17.15;;;;;;;3.18;100.00;100173.28;10236331;29;20094;-80
2024/01/19 14:05:49;;;;;;;28.58;17.65;;;;;;;3.11;100.00;100172.13;10229480;29;20460;-83
2024/01/19 14:10:50;;;;;;;26.80;17.27;;;;;;;3.09;100.00;100174.03;10229559;29;20082;-84
2024/01/19 14:15:51;;;;;;;25.15;16.98;;;;;;;3.06;100.00;100161.16;10232689;29;20067;-83
2024/01/19 14:20:54;;;;;;;27.92;17.00;;;;;;;2.74;100.00;100114.72;10237585;28;20046;-84
2024/01/19 14:25:55;;;;;;;30.17;16.50;;;;;;;2.98;100.00;100156.50;10242906;29;20052;-82
2024/01/19 14:30:56;;;;;;;45.20;26.10;;;;;;;2.90;100.00;100139.72;10240308;28;20043;-82
2024/01/19 14:35:57;;;;;;;28.35;18.92;;;;;;;2.95;100.00;100155.94;10243738;28;20137;-83
2024/01/19 14:40:57;;;;;;;31.10;18.63;;;;;;;2.88;100.00;100150.34;10236733;29;20131;-82
2024/01/19 14:45:59;;;;;;;28.67;17.58;;;;;;;3.03;100.00;100171.91;10247230;28;20064;-82
2024/01/19 14:51:00;;;;;;;34.20;19.60;;;;;;;3.05;100.00;100184.88;10236667;29;20122;-81
2024/01/19 14:56:01;;;;;;;29.30;17.50;;;;;;;2.98;100.00;100195.88;10244029;28;20051;-83
2024/01/19 15:01:02;;;;;;;27.08;16.45;;;;;;;3.03;100.00;100200.75;10239394;28;20504;-83
2024/01/19 15:06:03;;;;;;;25.13;15.38;;;;;;;3.07;100.00;100202.16;10240236;28;20043;-82
2024/01/19 15:11:04;;;;;;;26.17;15.35;;;;;;;3.05;100.00;100204.09;10238863;29;20055;-85
2024/01/19 15:16:05;;;;;;;29.38;16.08;;;;;;;2.73;100.00;100168.16;10247945;29;20047;-83
2024/01/19 15:21:05;;;;;;;30.33;17.17;;;;;;;2.98;100.00;100216.03;10246317;28;20043;-84
2024/01/19 15:26:06;;;;;;;29.52;16.65;;;;;;;2.80;100.00;100178.97;10247952;28;20050;-81
2024/01/19 15:31:07;;;;;;;26.80;16.85;;;;;;;2.83;100.00;100191.03;10255248;28;20047;-82
2024/01/19 15:36:09;;;;;;;31.92;17.13;;;;;;;2.90;100.00;100214.03;10255275;28;20050;-83
2024/01/19 15:41:10;;;;;;;28.85;17.35;;;;;;;2.93;100.00;100215.56;10255032;28;20047;-83
2024/01/19 15:46:11;;;;;;;32.17;18.15;;;;;;;2.90;100.00;100242.03;10255163;28;20081;-82
2024/01/19 15:51:20;;;;;;;35.65;19.30;;;;;;;2.81;100.00;100234.91;10252800;29;20043;-82
2024/01/19 15:56:23;;;;;;;48.63;21.38;;;;;;;2.74;100.00;100235.38;10254485;28;20150;-82
2024/01/19 16:01:23;;;;;;;40.65;19.55;;;;;;;2.82;100.00;100254.94;10253699;28;20393;-82
2024/01/19 16:06:24;;;;;;;52.95;21.15;;;;;;;2.77;100.00;100246.59;10240073;28;20047;-73
2024/01/19 16:11:25;;;;;;;40.92;21.48;;;;;;;2.73;100.00;100253.88;10248194;29;20043;-77
2024/01/19 16:16:25;;;;;;;46.90;22.33;;;;;;;2.83;100.00;100246.13;10253203;28;20047;-83
2024/01/19 16:21:27;;;;;;;37.10;20.77;;;;;;;2.86;100.00;100254.56;10252856;28;20061;-77
2024/01/19 16:26:28;;;;;;;42.65;21.20;;;;;;;2.83;100.00;100238.25;10243110;29;20130;-77
2024/01/19 16:31:29;;;;;;;43.95;22.75;;;;;;;2.70;100.00;100241.00;10252612;28;20134;-77
2024/01/19 16:36:29;;;;;;;51.67;23.63;;;;;;;2.77;100.00;100255.28;10252300;28;20043;-78
2024/01/19 16:41:30;;;;;;;49.85;22.80;;;;;;;2.41;100.00;100191.66;10252433;28;20129;-88
2024/01/19 16:46:31;;;;;;;58.97;24.20;;;;;;;2.35;100.00;100180.81;10248178;28;20503;-79
2024/01/19 16:51:32;;;;;;;52.17;21.80;;;;;;;2.74;100.00;100238.00;10250265;28;20054;-85
2024/01/19 16:56:39;;;;;;;62.30;23.25;;;;;;;2.72;100.00;100223.34;10251241;28;20043;-83
2024/01/19 17:01:40;;;;;;;54.30;22.23;;;;;;;2.51;100.00;100191.75;10252540;28;20082;-84
2024/01/19 17:06:41;;;;;;;47.80;22.75;;;;;;;2.78;100.00;100240.38;10249900;29;20085;-86
2024/01/19 17:11:42;;;;;;;83.90;24.02;;;;;;;2.77;100.00;100238.72;10250581;29;20067;-86
2024/01/19 17:16:42;;;;;;;58.42;25.77;;;;;;;2.78;100.00;100233.34;10252484;28;20043;-86
2024/01/19 17:21:44;;;;;;;57.67;24.60;;;;;;;2.37;100.00;100168.44;10249766;28;20051;-82
2024/01/19 17:26:45;;;;;;;76.57;24.45;;;;;;;2.72;100.00;100237.31;10247190;28;20039;-83
2024/01/19 17:31:45;;;;;;;82.15;29.73;;;;;;;2.74;100.00;100222.25;10251045;29;20035;-85
2024/01/19 17:36:46;;;;;;;74.47;26.58;;;;;;;2.68;100.00;100214.88;10250974;28;20536;-85
2024/01/19 17:41:47;;;;;;;73.57;25.45;;;;;;;2.53;100.00;100231.00;10253422;28;20567;-87
2024/01/19 17:46:51;;;;;;;78.18;27.15;;;;;;;2.59;100.00;100257.56;10250189;28;20050;-85
2024/01/19 17:51:51;;;;;;;78.20;29.42;;;;;;;2.46;100.00;100264.72;10254135;28;20074;-84
2024/01/19 17:56:52;;;;;;;81.00;31.60;;;;;;;2.42;100.00;100268.50;10247860;29;20047;-85
2024/01/19 18:01:53;;;;;;;76.75;29.58;;;;;;;2.44;100.00;100256.94;10258909;28;20043;-83
2024/01/19 18:06:54;;;;;;;99.30;29.17;;;;;;;2.45;100.00;100255.16;10259372;28;20500;-86
2024/01/19 18:11:55;;;;;;;95.55;29.63;;;;;;;2.32;100.00;100226.44;10258719;28;20054;-84
2024/01/19 18:16:56;;;;;;;111.20;28.70;;;;;;;2.46;100.00;100241.94;10258017;28;20039;-84
2024/01/19 18:21:56;;;;;;;86.15;27.65;;;;;;;2.36;100.00;100227.03;10258391;28;20049;-85
2024/01/19 18:26:57;;;;;;;101.13;28.10;;;;;;;2.55;100.00;100234.34;10257513;28;20055;-85
2024/01/19 18:31:58;;;;;;;115.07;31.20;;;;;;;2.49;100.00;100236.47;10257372;28;20134;-84
2024/01/19 18:36:59;;;;;;;127.22;31.35;;;;;;;2.51;100.00;100250.31;10256591;28;20053;-84
2024/01/19 18:41:59;;;;;;;121.75;30.08;;;;;;;2.18;100.00;100198.66;10255105;28;20150;-83
2024/01/19 18:47:00;;;;;;;131.45;32.63;;;;;;;2.51;100.00;100246.81;10254154;28;20047;-85
2024/01/19 18:52:01;;;;;;;113.05;32.65;;;;;;;2.46;100.00;100244.56;10253195;28;20106;-84
2024/01/19 18:57:02;;;;;;;182.27;37.42;;;;;;;2.42;100.00;100229.19;10255739;28;20039;-84
2024/01/19 19:02:03;;;;;;;182.63;34.88;;;;;;;2.40;100.00;100236.34;10255807;28;20106;-83
2024/01/19 19:07:04;;;;;;;160.27;34.13;;;;;;;2.28;100.00;100217.97;10257092;28;20054;-80
2024/01/19 19:12:05;;;;;;;141.95;32.45;;;;;;;2.26;100.00;100224.28;10252460;29;20396;-83
2024/01/19 19:17:05;;;;;;;161.20;32.95;;;;;;;2.23;100.00;100225.34;10251748;28;20523;-85
2024/01/19 19:22:06;;;;;;;149.93;30.23;;;;;;;2.24;100.00;100223.56;10254185;28;20082;-87
2024/01/19 19:27:07;;;;;;;172.88;30.13;;;;;;;2.28;100.00;100232.88;10234823;29;20513;-83
2024/01/19 19:32:08;;;;;;;226.93;31.75;;;;;;;2.18;100.00;100222.25;10233944;29;20039;-82
2024/01/19 19:37:08;;;;;;;102.22;31.88;;;;;;;1.83;100.00;100196.94;10235183;29;20492;-81
2024/01/19 19:42:09;;;;;;;136.23;33.10;;;;;;;2.23;100.00;100264.66;10238101;29;20147;-82
2024/01/19 19:47:10;;;;;;;242.20;37.08;;;;;;;1.96;100.00;100185.53;10243029;28;20043;-84
2024/01/19 19:52:11;;;;;;;232.10;35.42;;;;;;;2.37;100.00;100261.00;10237221;29;20039;-85
2024/01/19 19:57:11;;;;;;;189.88;34.13;;;;;;;2.16;100.00;100226.78;10234176;29;20039;-84
2024/01/19 20:02:12;;;;;;;153.57;31.48;;;;;;;2.44;100.00;100271.84;10232361;29;20635;-84
2024/01/19 20:07:13;;;;;;;203.15;29.73;;;;;;;2.42;100.00;100263.25;10247915;29;20039;-84
2024/01/19 20:12:14;;;;;;;155.98;29.77;;;;;;;2.45;100.00;100270.91;10251985;28;20047;-83
2024/01/19 20:17:14;;;;;;;212.43;31.70;;;;;;;2.39;100.00;100271.38;10253185;28;20058;-84
2024/01/19 20:22:15;;;;;;;228.55;33.17;;;;;;;2.29;100.00;100258.97;10253078;28;20047;-84
2024/01/19 20:27:19;;;;;;;223.48;33.63;;;;;;;2.17;100.00;100270.38;10253377;28;20055;-83
2024/01/19 20:32:19;;;;;;;246.43;34.10;;;;;;;2.13;100.00;100268.94;10252808;28;20046;-80
2024/01/19 20:37:20;;;;;;;221.50;32.60;;;;;;;2.11;100.00;100268.22;10251475;29;20036;-84
2024/01/19 20:42:21;;;;;;;167.52;33.03;;;;;;;2.11;100.00;100265.59;10250958;29;20055;-83
2024/01/19 20:47:22;;;;;;;235.75;32.42;;;;;;;1.66;100.00;100180.84;10252754;28;20043;-84
2024/01/19 20:52:22;;;;;;;256.70;31.95;;;;;;;1.96;100.00;100251.88;10252222;28;20070;-83
2024/01/19 20:57:23;;;;;;;226.35;32.75;;;;;;;1.97;100.00;100247.47;10252633;28;20039;-83
2024/01/19 21:02:24;;;;;;;188.80;29.92;;;;;;;2.08;100.00;100254.53;10252263;28;20077;-83
2024/01/19 21:07:25;;;;;;;153.40;30.58;;;;;;;2.09;100.00;100259.63;10251494;28;20097;-83
2024/01/19 21:12:25;;;;;;;166.60;30.58;;;;;;;2.16;100.00;100263.47;10251871;28;20550;-83
2024/01/19 21:17:26;;;;;;;261.10;31.65;;;;;;;2.20;100.00;100272.75;10252142;28;20110;-83
2024/01/19 21:22:27;;;;;;;159.30;29.73;;;;;;;2.20;100.00;100264.06;10251864;28;20046;-85
2024/01/19 21:27:29;;;;;;;157.95;28.02;;;;;;;2.21;100.00;100258.69;10251685;28;20404;-83
2024/01/19 21:32:29;;;;;;;314.98;30.85;;;;;;;2.31;100.00;100261.47;10251913;28;20051;-84
2024/01/19 21:37:30;;;;;;;122.90;27.58;;;;;;;2.31;100.00;100250.16;10251589;28;20078;-84
2024/01/19 21:42:31;;;;;;;152.80;24.23;;;;;;;2.29;100.00;100250.28;10251064;28;20055;-83
2024/01/19 21:47:32;;;;;;;264.00;23.77;;;;;;;2.25;100.00;100251.47;10251224;28;20047;-84
2024/01/19 21:52:33;;;;;;;85.38;19.38;;;;;;;2.32;100.00;100262.31;10251416;28;20130;-84
2024/01/19 21:57:34;;;;;;;98.55;21.95;;;;;;;2.25;100.00;100240.97;10251448;28;20571;-81
2024/01/19 22:02:35;;;;;;;94.93;18.58;;;;;;;2.33;100.00;100256.94;10249452;29;20050;-84
2024/01/19 22:07:35;;;;;;;131.20;20.63;;;;;;;2.26;100.00;100253.13;10250468;28;20035;-84
2024/01/19 22:12:36;;;;;;;80.57;20.38;;;;;;;2.22;100.00;100263.00;10251119;28;20582;-84
2024/01/19 22:17:37;;;;;;;58.90;17.05;;;;;;;2.17;100.00;100246.78;10250110;28;20043;-83
2024/01/19 22:22:38;;;;;;;73.57;19.02;;;;;;;2.10;100.00;100227.25;10250343;28;20043;-84
2024/01/19 22:27:39;;;;;;;57.13;17.15;;;;;;;1.79;100.00;100169.31;10249924;28;20051;-84
2024/01/19 22:32:40;;;;;;;67.90;16.45;;;;;;;2.10;100.00;100218.56;10250013;28;20464;-83